sensor_id;sensor_type;location;lat;lon;timestamp;P1;durP1;ratioP1;P2;durP2;ratioP2
41221;SDS011;26952;42.884;23.918;2022-12-29T00:01:13;6.82;;;4.88;;
41221;SDS011;26952;42.884;23.918;2022-12-29T00:03:39;7.05;;;4.95;;
41221;SDS011;26952;42.884;23.918;2022-12-29T00:06:04;6.00;;;5.38;;
41221;SDS011;26952;42.884;23.918;2022-12-29T00:08:29;5.53;;;4.93;;
41221;SDS011;26952;42.884;23.918;2022-12-29T00:13:33;5.72;;;5.22;;
41221;SDS011;26952;42.884;23.918;2022-12-29T00:16:18;5.82;;;5.25;;
41221;SDS011;26952;42.884;23.918;2022-12-29T00:18:43;5.13;;;4.72;;
41221;SDS011;26952;42.884;23.918;2022-12-29T00:21:15;6.10;;;5.50;;
41221;SDS011;26952;42.884;23.918;2022-12-29T00:24:01;5.90;;;4.90;;
41221;SDS011;26952;42.884;23.918;2022-12-29T00:26:46;5.18;;;4.68;;
41221;SDS011;26952;42.884;23.918;2022-12-29T00:29:40;4.35;;;3.95;;
41221;SDS011;26952;42.884;23.918;2022-12-29T00:32:24;4.07;;;3.78;;
41221;SDS011;26952;42.884;23.918;2022-12-29T00:35:12;5.13;;;4.07;;
41221;SDS011;26952;42.884;23.918;2022-12-29T00:37:43;4.30;;;3.90;;
41221;SDS011;26952;42.884;23.918;2022-12-29T00:40:30;6.18;;;4.35;;
41221;SDS011;26952;42.884;23.918;2022-12-29T00:43:15;5.20;;;4.70;;
41221;SDS011;26952;42.884;23.918;2022-12-29T00:45:58;5.55;;;4.85;;
41221;SDS011;26952;42.884;23.918;2022-12-29T00:48:24;6.00;;;5.15;;
41221;SDS011;26952;42.884;23.918;2022-12-29T00:51:08;5.88;;;4.93;;
41221;SDS011;26952;42.884;23.918;2022-12-29T00:53:33;6.43;;;5.72;;
41221;SDS011;26952;42.884;23.918;2022-12-29T00:55:59;6.40;;;5.85;;
41221;SDS011;26952;42.884;23.918;2022-12-29T00:58:28;6.40;;;5.80;;
41221;SDS011;26952;42.884;23.918;2022-12-29T01:01:01;7.70;;;7.00;;
41221;SDS011;26952;42.884;23.918;2022-12-29T01:03:32;7.03;;;6.38;;
41221;SDS011;26952;42.884;23.918;2022-12-29T01:06:02;6.80;;;6.20;;
41221;SDS011;26952;42.884;23.918;2022-12-29T01:08:29;6.07;;;5.60;;
41221;SDS011;26952;42.884;23.918;2022-12-29T01:11:01;6.47;;;5.97;;
41221;SDS011;26952;42.884;23.918;2022-12-29T01:13:31;6.65;;;5.93;;
41221;SDS011;26952;42.884;23.918;2022-12-29T01:15:56;6.43;;;5.93;;
41221;SDS011;26952;42.884;23.918;2022-12-29T01:18:23;7.18;;;6.57;;
41221;SDS011;26952;42.884;23.918;2022-12-29T01:20:49;6.40;;;4.95;;
41221;SDS011;26952;42.884;23.918;2022-12-29T01:23:14;5.65;;;4.85;;
41221;SDS011;26952;42.884;23.918;2022-12-29T01:25:40;5.22;;;4.82;;
41221;SDS011;26952;42.884;23.918;2022-12-29T01:28:05;7.13;;;6.43;;
41221;SDS011;26952;42.884;23.918;2022-12-29T01:30:33;6.82;;;6.32;;
41221;SDS011;26952;42.884;23.918;2022-12-29T01:32:59;6.80;;;6.15;;
41221;SDS011;26952;42.884;23.918;2022-12-29T01:35:24;5.88;;;5.40;;
41221;SDS011;26952;42.884;23.918;2022-12-29T01:37:50;7.75;;;5.88;;
41221;SDS011;26952;42.884;23.918;2022-12-29T01:40:15;6.47;;;5.97;;
41221;SDS011;26952;42.884;23.918;2022-12-29T01:42:41;6.30;;;5.63;;
41221;SDS011;26952;42.884;23.918;2022-12-29T01:45:10;5.22;;;4.80;;
41221;SDS011;26952;42.884;23.918;2022-12-29T01:47:44;5.40;;;4.88;;
41221;SDS011;26952;42.884;23.918;2022-12-29T01:50:19;5.80;;;4.95;;
41221;SDS011;26952;42.884;23.918;2022-12-29T01:52:51;6.05;;;4.53;;
41221;SDS011;26952;42.884;23.918;2022-12-29T01:55:46;5.82;;;4.43;;
41221;SDS011;26952;42.884;23.918;2022-12-29T01:58:19;5.15;;;4.43;;
41221;SDS011;26952;42.884;23.918;2022-12-29T02:00:48;5.72;;;4.20;;
41221;SDS011;26952;42.884;23.918;2022-12-29T02:03:13;4.55;;;3.92;;
41221;SDS011;26952;42.884;23.918;2022-12-29T02:08:20;4.15;;;3.75;;
41221;SDS011;26952;42.884;23.918;2022-12-29T02:10:49;6.30;;;4.30;;
41221;SDS011;26952;42.884;23.918;2022-12-29T02:13:15;4.35;;;3.90;;
41221;SDS011;26952;42.884;23.918;2022-12-29T02:18:32;6.25;;;4.90;;
41221;SDS011;26952;42.884;23.918;2022-12-29T02:21:07;6.68;;;5.05;;
41221;SDS011;26952;42.884;23.918;2022-12-29T02:24:00;7.80;;;4.97;;
41221;SDS011;26952;42.884;23.918;2022-12-29T02:35:44;6.93;;;5.80;;
41221;SDS011;26952;42.884;23.918;2022-12-29T02:52:44;11.80;;;10.90;;
41221;SDS011;26952;42.884;23.918;2022-12-29T02:55:14;12.70;;;11.50;;
41221;SDS011;26952;42.884;23.918;2022-12-29T02:57:40;12.88;;;11.98;;
41221;SDS011;26952;42.884;23.918;2022-12-29T03:10:33;7.05;;;6.03;;
41221;SDS011;26952;42.884;23.918;2022-12-29T03:13:16;6.63;;;5.78;;
41221;SDS011;26952;42.884;23.918;2022-12-29T03:16:20;6.63;;;5.63;;
41221;SDS011;26952;42.884;23.918;2022-12-29T03:19:07;7.40;;;6.55;;
41221;SDS011;26952;42.884;23.918;2022-12-29T03:21:41;6.18;;;5.53;;
41221;SDS011;26952;42.884;23.918;2022-12-29T03:24:32;8.88;;;8.15;;
41221;SDS011;26952;42.884;23.918;2022-12-29T03:27:02;8.68;;;7.82;;
41221;SDS011;26952;42.884;23.918;2022-12-29T03:29:32;10.17;;;9.23;;
41221;SDS011;26952;42.884;23.918;2022-12-29T03:32:01;9.43;;;7.95;;
41221;SDS011;26952;42.884;23.918;2022-12-29T03:34:29;9.38;;;8.57;;
41221;SDS011;26952;42.884;23.918;2022-12-29T03:37:07;8.35;;;7.63;;
41221;SDS011;26952;42.884;23.918;2022-12-29T03:39:39;7.82;;;7.18;;
41221;SDS011;26952;42.884;23.918;2022-12-29T03:42:05;7.88;;;7.18;;
41221;SDS011;26952;42.884;23.918;2022-12-29T03:44:38;9.57;;;8.63;;
41221;SDS011;26952;42.884;23.918;2022-12-29T03:47:06;10.73;;;9.75;;
41221;SDS011;26952;42.884;23.918;2022-12-29T03:49:32;11.45;;;10.35;;
41221;SDS011;26952;42.884;23.918;2022-12-29T03:51:58;10.85;;;9.95;;
41221;SDS011;26952;42.884;23.918;2022-12-29T03:54:24;11.68;;;10.57;;
41221;SDS011;26952;42.884;23.918;2022-12-29T03:56:49;12.82;;;11.52;;
41221;SDS011;26952;42.884;23.918;2022-12-29T03:59:15;10.27;;;9.27;;
41221;SDS011;26952;42.884;23.918;2022-12-29T04:01:40;9.75;;;8.95;;
41221;SDS011;26952;42.884;23.918;2022-12-29T04:04:06;10.55;;;9.65;;
41221;SDS011;26952;42.884;23.918;2022-12-29T04:06:31;10.82;;;9.93;;
41221;SDS011;26952;42.884;23.918;2022-12-29T04:08:57;11.93;;;11.02;;
41221;SDS011;26952;42.884;23.918;2022-12-29T04:11:22;14.55;;;13.15;;
41221;SDS011;26952;42.884;23.918;2022-12-29T04:13:48;17.38;;;16.10;;
41221;SDS011;26952;42.884;23.918;2022-12-29T04:16:13;18.77;;;17.38;;
41221;SDS011;26952;42.884;23.918;2022-12-29T04:18:39;19.50;;;17.98;;
41221;SDS011;26952;42.884;23.918;2022-12-29T04:21:04;15.77;;;14.57;;
41221;SDS011;26952;42.884;23.918;2022-12-29T04:23:31;13.07;;;12.07;;
41221;SDS011;26952;42.884;23.918;2022-12-29T04:25:58;12.32;;;11.32;;
41221;SDS011;26952;42.884;23.918;2022-12-29T04:28:24;11.13;;;10.00;;
41221;SDS011;26952;42.884;23.918;2022-12-29T04:30:50;11.32;;;8.68;;
41221;SDS011;26952;42.884;23.918;2022-12-29T04:33:15;8.07;;;7.40;;
41221;SDS011;26952;42.884;23.918;2022-12-29T04:35:41;7.90;;;7.20;;
41221;SDS011;26952;42.884;23.918;2022-12-29T04:38:07;8.85;;;7.95;;
41221;SDS011;26952;42.884;23.918;2022-12-29T04:40:32;7.50;;;6.60;;
41221;SDS011;26952;42.884;23.918;2022-12-29T04:42:58;7.68;;;6.35;;
41221;SDS011;26952;42.884;23.918;2022-12-29T04:45:23;8.52;;;7.30;;
41221;SDS011;26952;42.884;23.918;2022-12-29T04:47:48;7.25;;;6.55;;
41221;SDS011;26952;42.884;23.918;2022-12-29T04:50:14;7.80;;;7.05;;
41221;SDS011;26952;42.884;23.918;2022-12-29T04:52:39;7.72;;;6.35;;
41221;SDS011;26952;42.884;23.918;2022-12-29T04:55:05;9.10;;;8.20;;
41221;SDS011;26952;42.884;23.918;2022-12-29T04:57:31;13.52;;;12.43;;
41221;SDS011;26952;42.884;23.918;2022-12-29T04:59:57;16.38;;;15.00;;
41221;SDS011;26952;42.884;23.918;2022-12-29T05:02:22;14.88;;;13.70;;
41221;SDS011;26952;42.884;23.918;2022-12-29T05:04:48;17.38;;;16.08;;
41221;SDS011;26952;42.884;23.918;2022-12-29T05:07:13;16.65;;;15.25;;
41221;SDS011;26952;42.884;23.918;2022-12-29T05:09:39;14.75;;;13.50;;
41221;SDS011;26952;42.884;23.918;2022-12-29T05:12:04;15.48;;;14.18;;
41221;SDS011;26952;42.884;23.918;2022-12-29T05:14:30;14.60;;;13.40;;
41221;SDS011;26952;42.884;23.918;2022-12-29T05:16:55;13.25;;;12.18;;
41221;SDS011;26952;42.884;23.918;2022-12-29T05:19:20;12.15;;;10.95;;
41221;SDS011;26952;42.884;23.918;2022-12-29T05:21:46;11.95;;;10.82;;
41221;SDS011;26952;42.884;23.918;2022-12-29T05:24:11;11.80;;;10.70;;
41221;SDS011;26952;42.884;23.918;2022-12-29T05:26:37;10.63;;;9.57;;
41221;SDS011;26952;42.884;23.918;2022-12-29T05:29:02;10.60;;;9.70;;
41221;SDS011;26952;42.884;23.918;2022-12-29T05:31:28;11.35;;;10.07;;
41221;SDS011;26952;42.884;23.918;2022-12-29T05:33:53;8.75;;;7.90;;
41221;SDS011;26952;42.884;23.918;2022-12-29T05:36:19;9.63;;;8.73;;
41221;SDS011;26952;42.884;23.918;2022-12-29T05:38:44;9.07;;;8.20;;
41221;SDS011;26952;42.884;23.918;2022-12-29T05:41:10;10.02;;;8.82;;
41221;SDS011;26952;42.884;23.918;2022-12-29T05:43:35;10.65;;;9.55;;
41221;SDS011;26952;42.884;23.918;2022-12-29T05:46:02;12.38;;;10.38;;
41221;SDS011;26952;42.884;23.918;2022-12-29T05:48:28;10.50;;;9.50;;
41221;SDS011;26952;42.884;23.918;2022-12-29T05:50:54;11.82;;;10.50;;
41221;SDS011;26952;42.884;23.918;2022-12-29T05:53:20;12.15;;;11.02;;
41221;SDS011;26952;42.884;23.918;2022-12-29T05:55:46;13.73;;;12.55;;
41221;SDS011;26952;42.884;23.918;2022-12-29T05:58:12;13.63;;;12.43;;
41221;SDS011;26952;42.884;23.918;2022-12-29T06:00:38;14.55;;;13.25;;
41221;SDS011;26952;42.884;23.918;2022-12-29T06:03:04;14.27;;;13.07;;
41221;SDS011;26952;42.884;23.918;2022-12-29T06:05:30;12.43;;;11.40;;
41221;SDS011;26952;42.884;23.918;2022-12-29T06:07:55;13.85;;;11.60;;
41221;SDS011;26952;42.884;23.918;2022-12-29T06:10:21;13.23;;;12.10;;
41221;SDS011;26952;42.884;23.918;2022-12-29T06:12:46;12.43;;;11.40;;
41221;SDS011;26952;42.884;23.918;2022-12-29T06:15:12;13.90;;;12.63;;
41221;SDS011;26952;42.884;23.918;2022-12-29T06:17:38;13.88;;;11.45;;
41221;SDS011;26952;42.884;23.918;2022-12-29T06:20:04;14.48;;;13.20;;
41221;SDS011;26952;42.884;23.918;2022-12-29T06:22:30;13.15;;;12.05;;
41221;SDS011;26952;42.884;23.918;2022-12-29T06:24:55;13.18;;;11.88;;
41221;SDS011;26952;42.884;23.918;2022-12-29T06:27:21;16.65;;;13.70;;
41221;SDS011;26952;42.884;23.918;2022-12-29T06:29:46;11.88;;;10.77;;
41221;SDS011;26952;42.884;23.918;2022-12-29T06:32:12;10.57;;;9.68;;
41221;SDS011;26952;42.884;23.918;2022-12-29T06:34:37;10.27;;;9.30;;
41221;SDS011;26952;42.884;23.918;2022-12-29T06:37:02;8.75;;;7.53;;
41221;SDS011;26952;42.884;23.918;2022-12-29T06:39:28;7.40;;;6.70;;
41221;SDS011;26952;42.884;23.918;2022-12-29T06:41:54;9.80;;;6.75;;
41221;SDS011;26952;42.884;23.918;2022-12-29T06:44:20;8.00;;;7.25;;
41221;SDS011;26952;42.884;23.918;2022-12-29T06:46:46;11.27;;;7.70;;
41221;SDS011;26952;42.884;23.918;2022-12-29T06:49:11;8.48;;;7.63;;
41221;SDS011;26952;42.884;23.918;2022-12-29T06:51:37;11.10;;;7.43;;
41221;SDS011;26952;42.884;23.918;2022-12-29T06:54:02;10.98;;;8.35;;
41221;SDS011;26952;42.884;23.918;2022-12-29T06:56:27;8.52;;;7.70;;
41221;SDS011;26952;42.884;23.918;2022-12-29T06:58:53;9.65;;;8.27;;
41221;SDS011;26952;42.884;23.918;2022-12-29T07:01:18;9.23;;;7.80;;
41221;SDS011;26952;42.884;23.918;2022-12-29T07:03:44;9.98;;;9.05;;
41221;SDS011;26952;42.884;23.918;2022-12-29T07:06:09;11.38;;;9.80;;
41221;SDS011;26952;42.884;23.918;2022-12-29T07:08:35;11.15;;;10.25;;
41221;SDS011;26952;42.884;23.918;2022-12-29T07:11:00;10.57;;;9.68;;
41221;SDS011;26952;42.884;23.918;2022-12-29T07:13:25;10.70;;;9.80;;
41221;SDS011;26952;42.884;23.918;2022-12-29T07:15:51;9.02;;;8.10;;
41221;SDS011;26952;42.884;23.918;2022-12-29T07:18:16;7.60;;;6.85;;
41221;SDS011;26952;42.884;23.918;2022-12-29T07:20:41;8.27;;;6.88;;
41221;SDS011;26952;42.884;23.918;2022-12-29T07:23:07;9.10;;;6.72;;
41221;SDS011;26952;42.884;23.918;2022-12-29T07:25:32;7.63;;;6.93;;
41221;SDS011;26952;42.884;23.918;2022-12-29T07:27:59;7.85;;;7.07;;
41221;SDS011;26952;42.884;23.918;2022-12-29T07:30:25;9.73;;;8.80;;
41221;SDS011;26952;42.884;23.918;2022-12-29T07:32:50;14.00;;;12.75;;
41221;SDS011;26952;42.884;23.918;2022-12-29T07:35:16;18.23;;;17.02;;
41221;SDS011;26952;42.884;23.918;2022-12-29T07:37:41;20.88;;;19.50;;
41221;SDS011;26952;42.884;23.918;2022-12-29T07:40:07;18.38;;;17.00;;
41221;SDS011;26952;42.884;23.918;2022-12-29T07:42:34;22.00;;;20.30;;
41221;SDS011;26952;42.884;23.918;2022-12-29T07:44:59;18.55;;;16.85;;
41221;SDS011;26952;42.884;23.918;2022-12-29T07:47:25;17.17;;;15.68;;
41221;SDS011;26952;42.884;23.918;2022-12-29T07:49:51;16.95;;;14.90;;
41221;SDS011;26952;42.884;23.918;2022-12-29T07:52:16;17.60;;;16.20;;
41221;SDS011;26952;42.884;23.918;2022-12-29T07:54:41;15.85;;;14.70;;
41221;SDS011;26952;42.884;23.918;2022-12-29T07:57:07;15.48;;;14.38;;
41221;SDS011;26952;42.884;23.918;2022-12-29T07:59:32;15.20;;;14.10;;
41221;SDS011;26952;42.884;23.918;2022-12-29T08:01:58;16.33;;;15.02;;
41221;SDS011;26952;42.884;23.918;2022-12-29T08:04:23;20.40;;;19.10;;
41221;SDS011;26952;42.884;23.918;2022-12-29T08:06:48;18.98;;;17.67;;
41221;SDS011;26952;42.884;23.918;2022-12-29T08:09:14;20.92;;;19.63;;
41221;SDS011;26952;42.884;23.918;2022-12-29T08:11:39;22.13;;;20.58;;
41221;SDS011;26952;42.884;23.918;2022-12-29T08:14:05;19.42;;;18.13;;
41221;SDS011;26952;42.884;23.918;2022-12-29T08:16:30;19.33;;;18.00;;
41221;SDS011;26952;42.884;23.918;2022-12-29T08:18:56;17.52;;;16.13;;
41221;SDS011;26952;42.884;23.918;2022-12-29T08:21:21;18.17;;;16.90;;
41221;SDS011;26952;42.884;23.918;2022-12-29T08:23:47;16.05;;;14.85;;
41221;SDS011;26952;42.884;23.918;2022-12-29T08:26:12;15.90;;;14.90;;
41221;SDS011;26952;42.884;23.918;2022-12-29T08:28:38;16.70;;;15.68;;
41221;SDS011;26952;42.884;23.918;2022-12-29T08:31:03;16.30;;;15.30;;
41221;SDS011;26952;42.884;23.918;2022-12-29T08:33:29;14.65;;;13.50;;
41221;SDS011;26952;42.884;23.918;2022-12-29T08:36:01;12.43;;;11.43;;
41221;SDS011;26952;42.884;23.918;2022-12-29T08:38:28;318.05;;;159.95;;
41221;SDS011;26952;42.884;23.918;2022-12-29T08:40:55;435.88;;;235.23;;
41221;SDS011;26952;42.884;23.918;2022-12-29T08:43:21;65.30;;;49.00;;
41221;SDS011;26952;42.884;23.918;2022-12-29T08:45:47;13.20;;;12.27;;
41221;SDS011;26952;42.884;23.918;2022-12-29T08:48:12;16.13;;;15.10;;
41221;SDS011;26952;42.884;23.918;2022-12-29T08:50:37;16.52;;;15.35;;
41221;SDS011;26952;42.884;23.918;2022-12-29T08:53:03;13.93;;;12.93;;
41221;SDS011;26952;42.884;23.918;2022-12-29T08:55:28;17.35;;;16.13;;
41221;SDS011;26952;42.884;23.918;2022-12-29T08:57:53;19.30;;;18.08;;
41221;SDS011;26952;42.884;23.918;2022-12-29T09:00:19;16.33;;;15.13;;
41221;SDS011;26952;42.884;23.918;2022-12-29T09:02:45;16.58;;;15.32;;
41221;SDS011;26952;42.884;23.918;2022-12-29T09:05:11;15.77;;;14.65;;
41221;SDS011;26952;42.884;23.918;2022-12-29T09:07:36;20.10;;;18.70;;
41221;SDS011;26952;42.884;23.918;2022-12-29T09:10:02;23.10;;;21.48;;
41221;SDS011;26952;42.884;23.918;2022-12-29T09:12:29;20.92;;;19.42;;
41221;SDS011;26952;42.884;23.918;2022-12-29T09:14:54;24.23;;;22.63;;
41221;SDS011;26952;42.884;23.918;2022-12-29T09:17:19;21.92;;;20.45;;
41221;SDS011;26952;42.884;23.918;2022-12-29T09:20:03;23.63;;;22.13;;
41221;SDS011;26952;42.884;23.918;2022-12-29T09:22:29;23.17;;;21.65;;
41221;SDS011;26952;42.884;23.918;2022-12-29T09:24:55;27.90;;;26.20;;
41221;SDS011;26952;42.884;23.918;2022-12-29T09:27:20;18.13;;;16.73;;
41221;SDS011;26952;42.884;23.918;2022-12-29T09:29:45;15.27;;;14.13;;
41221;SDS011;26952;42.884;23.918;2022-12-29T09:32:11;20.20;;;18.65;;
41221;SDS011;26952;42.884;23.918;2022-12-29T09:34:36;29.40;;;27.58;;
41221;SDS011;26952;42.884;23.918;2022-12-29T09:37:02;38.17;;;35.58;;
41221;SDS011;26952;42.884;23.918;2022-12-29T09:39:27;24.48;;;23.00;;
41221;SDS011;26952;42.884;23.918;2022-12-29T09:42:15;26.23;;;24.65;;
41221;SDS011;26952;42.884;23.918;2022-12-29T09:47:27;28.80;;;27.13;;
41221;SDS011;26952;42.884;23.918;2022-12-29T09:49:54;27.73;;;25.90;;
41221;SDS011;26952;42.884;23.918;2022-12-29T09:52:41;28.63;;;26.83;;
41221;SDS011;26952;42.884;23.918;2022-12-29T09:55:14;58.63;;;54.45;;
41221;SDS011;26952;42.884;23.918;2022-12-29T09:57:51;28.80;;;26.67;;
41221;SDS011;26952;42.884;23.918;2022-12-29T10:00:22;19.00;;;17.80;;
41221;SDS011;26952;42.884;23.918;2022-12-29T10:02:59;17.67;;;16.48;;
41221;SDS011;26952;42.884;23.918;2022-12-29T10:08:06;17.02;;;15.82;;
41221;SDS011;26952;42.884;23.918;2022-12-29T10:10:48;20.35;;;19.05;;
41221;SDS011;26952;42.884;23.918;2022-12-29T10:13:28;21.75;;;20.25;;
41221;SDS011;26952;42.884;23.918;2022-12-29T10:16:15;49.67;;;45.47;;
41221;SDS011;26952;42.884;23.918;2022-12-29T10:22:57;21.60;;;20.23;;
41221;SDS011;26952;42.884;23.918;2022-12-29T10:25:17;22.50;;;21.17;;
41221;SDS011;26952;42.884;23.918;2022-12-29T10:27:49;24.52;;;23.00;;
41221;SDS011;26952;42.884;23.918;2022-12-29T10:30:17;27.10;;;25.40;;
41221;SDS011;26952;42.884;23.918;2022-12-29T10:32:50;32.72;;;30.52;;
41221;SDS011;26952;42.884;23.918;2022-12-29T10:37:58;27.58;;;25.70;;
41221;SDS011;26952;42.884;23.918;2022-12-29T10:43:22;25.85;;;23.75;;
41221;SDS011;26952;42.884;23.918;2022-12-29T10:45:49;20.80;;;19.10;;
41221;SDS011;26952;42.884;23.918;2022-12-29T10:48:20;24.55;;;22.45;;
41221;SDS011;26952;42.884;23.918;2022-12-29T10:50:49;25.23;;;23.13;;
41221;SDS011;26952;42.884;23.918;2022-12-29T10:53:18;27.00;;;24.73;;
41221;SDS011;26952;42.884;23.918;2022-12-29T10:55:47;22.80;;;20.75;;
41221;SDS011;26952;42.884;23.918;2022-12-29T10:58:15;23.52;;;21.23;;
41221;SDS011;26952;42.884;23.918;2022-12-29T11:00:41;22.10;;;20.13;;
41221;SDS011;26952;42.884;23.918;2022-12-29T11:05:53;21.33;;;19.55;;
41221;SDS011;26952;42.884;23.918;2022-12-29T11:08:24;24.27;;;22.17;;
41221;SDS011;26952;42.884;23.918;2022-12-29T11:11:00;23.23;;;21.05;;
41221;SDS011;26952;42.884;23.918;2022-12-29T11:13:31;19.90;;;18.15;;
41221;SDS011;26952;42.884;23.918;2022-12-29T11:15:58;19.90;;;17.90;;
41221;SDS011;26952;42.884;23.918;2022-12-29T11:18:33;25.88;;;23.58;;
41221;SDS011;26952;42.884;23.918;2022-12-29T11:21:03;28.13;;;25.75;;
41221;SDS011;26952;42.884;23.918;2022-12-29T11:28:46;32.42;;;29.95;;
41221;SDS011;26952;42.884;23.918;2022-12-29T11:31:28;34.72;;;32.10;;
41221;SDS011;26952;42.884;23.918;2022-12-29T11:33:53;37.00;;;34.40;;
41221;SDS011;26952;42.884;23.918;2022-12-29T11:36:20;35.63;;;32.97;;
41221;SDS011;26952;42.884;23.918;2022-12-29T11:38:49;39.28;;;36.30;;
41221;SDS011;26952;42.884;23.918;2022-12-29T11:41:27;33.15;;;30.83;;
41221;SDS011;26952;42.884;23.918;2022-12-29T11:43:55;34.42;;;31.98;;
41221;SDS011;26952;42.884;23.918;2022-12-29T11:46:31;32.80;;;30.50;;
41221;SDS011;26952;42.884;23.918;2022-12-29T11:48:59;30.33;;;28.00;;
41221;SDS011;26952;42.884;23.918;2022-12-29T11:51:45;29.08;;;26.73;;
41221;SDS011;26952;42.884;23.918;2022-12-29T11:54:15;32.60;;;30.23;;
41221;SDS011;26952;42.884;23.918;2022-12-29T11:56:54;37.67;;;35.10;;
41221;SDS011;26952;42.884;23.918;2022-12-29T12:01:55;36.97;;;34.38;;
41221;SDS011;26952;42.884;23.918;2022-12-29T12:04:24;35.33;;;32.72;;
41221;SDS011;26952;42.884;23.918;2022-12-29T12:09:27;37.35;;;34.83;;
41221;SDS011;26952;42.884;23.918;2022-12-29T12:11:56;34.22;;;31.75;;
41221;SDS011;26952;42.884;23.918;2022-12-29T12:14:38;37.58;;;34.88;;
41221;SDS011;26952;42.884;23.918;2022-12-29T12:17:12;28.85;;;26.50;;
41221;SDS011;26952;42.884;23.918;2022-12-29T12:19:47;26.42;;;24.38;;
41221;SDS011;26952;42.884;23.918;2022-12-29T12:22:25;20.83;;;19.33;;
41221;SDS011;26952;42.884;23.918;2022-12-29T12:25:04;20.55;;;18.70;;
41221;SDS011;26952;42.884;23.918;2022-12-29T12:27:48;17.58;;;15.80;;
41221;SDS011;26952;42.884;23.918;2022-12-29T12:30:22;19.20;;;17.63;;
41221;SDS011;26952;42.884;23.918;2022-12-29T12:35:53;22.92;;;21.00;;
41221;SDS011;26952;42.884;23.918;2022-12-29T12:57:10;23.13;;;21.23;;
41221;SDS011;26952;42.884;23.918;2022-12-29T12:59:45;22.70;;;20.58;;
41221;SDS011;26952;42.884;23.918;2022-12-29T13:13:52;26.38;;;24.42;;
41221;SDS011;26952;42.884;23.918;2022-12-29T13:16:34;31.08;;;28.65;;
41221;SDS011;26952;42.884;23.918;2022-12-29T13:30:22;19.10;;;17.63;;
41221;SDS011;26952;42.884;23.918;2022-12-29T13:35:55;21.00;;;19.40;;
41221;SDS011;26952;42.884;23.918;2022-12-29T13:38:39;22.90;;;20.92;;
41221;SDS011;26952;42.884;23.918;2022-12-29T13:41:08;21.67;;;19.98;;
41221;SDS011;26952;42.884;23.918;2022-12-29T13:43:52;26.13;;;24.42;;
41221;SDS011;26952;42.884;23.918;2022-12-29T13:46:22;41.47;;;38.58;;
41221;SDS011;26952;42.884;23.918;2022-12-29T13:48:53;33.72;;;31.58;;
41221;SDS011;26952;42.884;23.918;2022-12-29T13:51:31;20.65;;;19.05;;
41221;SDS011;26952;42.884;23.918;2022-12-29T14:07:23;16.42;;;14.90;;
41221;SDS011;26952;42.884;23.918;2022-12-29T14:09:52;18.73;;;17.20;;
41221;SDS011;26952;42.884;23.918;2022-12-29T14:12:39;18.65;;;16.95;;
41221;SDS011;26952;42.884;23.918;2022-12-29T14:17:35;19.25;;;17.55;;
41221;SDS011;26952;42.884;23.918;2022-12-29T14:20:01;20.08;;;18.45;;
41221;SDS011;26952;42.884;23.918;2022-12-29T14:22:29;24.17;;;22.25;;
41221;SDS011;26952;42.884;23.918;2022-12-29T14:24:54;31.63;;;29.42;;
41221;SDS011;26952;42.884;23.918;2022-12-29T14:29:46;33.85;;;31.75;;
41221;SDS011;26952;42.884;23.918;2022-12-29T14:34:53;29.10;;;26.95;;
41221;SDS011;26952;42.884;23.918;2022-12-29T14:42:43;17.05;;;15.77;;
41221;SDS011;26952;42.884;23.918;2022-12-29T14:47:39;15.85;;;14.55;;
41221;SDS011;26952;42.884;23.918;2022-12-29T14:50:08;16.35;;;15.00;;
41221;SDS011;26952;42.884;23.918;2022-12-29T14:52:51;14.77;;;13.55;;
41221;SDS011;26952;42.884;23.918;2022-12-29T14:58:00;13.77;;;12.70;;
41221;SDS011;26952;42.884;23.918;2022-12-29T15:00:31;14.68;;;13.57;;
41221;SDS011;26952;42.884;23.918;2022-12-29T15:03:06;13.45;;;12.35;;
41221;SDS011;26952;42.884;23.918;2022-12-29T15:05:45;11.82;;;10.93;;
41221;SDS011;26952;42.884;23.918;2022-12-29T15:08:16;12.07;;;10.98;;
41221;SDS011;26952;42.884;23.918;2022-12-29T15:10:58;10.75;;;9.93;;
41221;SDS011;26952;42.884;23.918;2022-12-29T15:13:35;10.32;;;9.43;;
41221;SDS011;26952;42.884;23.918;2022-12-29T15:16:03;9.57;;;8.77;;
41221;SDS011;26952;42.884;23.918;2022-12-29T15:18:29;10.18;;;9.32;;
41221;SDS011;26952;42.884;23.918;2022-12-29T15:20:57;10.13;;;9.32;;
41221;SDS011;26952;42.884;23.918;2022-12-29T15:23:25;9.40;;;8.63;;
41221;SDS011;26952;42.884;23.918;2022-12-29T15:25:56;12.38;;;11.32;;
41221;SDS011;26952;42.884;23.918;2022-12-29T15:28:23;11.13;;;10.43;;
41221;SDS011;26952;42.884;23.918;2022-12-29T15:31:03;15.02;;;13.95;;
41221;SDS011;26952;42.884;23.918;2022-12-29T15:33:31;16.52;;;15.23;;
41221;SDS011;26952;42.884;23.918;2022-12-29T15:36:03;17.77;;;16.48;;
41221;SDS011;26952;42.884;23.918;2022-12-29T15:38:34;18.02;;;16.73;;
41221;SDS011;26952;42.884;23.918;2022-12-29T15:41:02;17.25;;;15.73;;
41221;SDS011;26952;42.884;23.918;2022-12-29T15:46:00;18.27;;;16.95;;
41221;SDS011;26952;42.884;23.918;2022-12-29T15:48:26;31.98;;;25.23;;
41221;SDS011;26952;42.884;23.918;2022-12-29T15:50:53;20.20;;;18.80;;
41221;SDS011;26952;42.884;23.918;2022-12-29T15:53:26;18.13;;;16.83;;
41221;SDS011;26952;42.884;23.918;2022-12-29T15:55:55;17.70;;;16.60;;
41221;SDS011;26952;42.884;23.918;2022-12-29T15:58:25;18.00;;;16.60;;
41221;SDS011;26952;42.884;23.918;2022-12-29T16:00:53;16.60;;;15.50;;
41221;SDS011;26952;42.884;23.918;2022-12-29T16:03:21;15.40;;;14.45;;
41221;SDS011;26952;42.884;23.918;2022-12-29T16:05:52;14.82;;;13.73;;
41221;SDS011;26952;42.884;23.918;2022-12-29T16:08:34;15.50;;;14.38;;
41221;SDS011;26952;42.884;23.918;2022-12-29T16:11:16;14.45;;;13.45;;
41221;SDS011;26952;42.884;23.918;2022-12-29T16:13:47;13.93;;;12.82;;
41221;SDS011;26952;42.884;23.918;2022-12-29T16:16:18;13.68;;;12.77;;
41221;SDS011;26952;42.884;23.918;2022-12-29T16:18:47;11.40;;;10.50;;
41221;SDS011;26952;42.884;23.918;2022-12-29T16:21:18;11.80;;;11.00;;
41221;SDS011;26952;42.884;23.918;2022-12-29T16:23:48;10.68;;;9.98;;
41221;SDS011;26952;42.884;23.918;2022-12-29T16:26:18;10.63;;;9.70;;
41221;SDS011;26952;42.884;23.918;2022-12-29T16:28:47;10.23;;;9.25;;
41221;SDS011;26952;42.884;23.918;2022-12-29T16:32:18;9.35;;;8.63;;
41221;SDS011;26952;42.884;23.918;2022-12-29T16:39:52;7.70;;;6.90;;
41221;SDS011;26952;42.884;23.918;2022-12-29T16:45:16;7.10;;;6.13;;
41221;SDS011;26952;42.884;23.918;2022-12-29T16:48:09;8.57;;;6.90;;
41221;SDS011;26952;42.884;23.918;2022-12-29T16:50:32;8.65;;;7.13;;
41221;SDS011;26952;42.884;23.918;2022-12-29T16:53:00;11.10;;;8.45;;
41221;SDS011;26952;42.884;23.918;2022-12-29T16:55:28;8.75;;;7.95;;
41221;SDS011;26952;42.884;23.918;2022-12-29T16:57:54;10.23;;;8.70;;
41221;SDS011;26952;42.884;23.918;2022-12-29T17:00:31;9.23;;;8.40;;
41221;SDS011;26952;42.884;23.918;2022-12-29T17:03:00;9.40;;;8.57;;
41221;SDS011;26952;42.884;23.918;2022-12-29T17:05:28;10.13;;;8.52;;
41221;SDS011;26952;42.884;23.918;2022-12-29T17:07:53;8.90;;;8.10;;
41221;SDS011;26952;42.884;23.918;2022-12-29T17:10:20;9.00;;;8.10;;
41221;SDS011;26952;42.884;23.918;2022-12-29T17:12:46;11.55;;;9.45;;